createdAt,value
2019-04-27T07:37:55.627Z,101029.19
2019-04-27T07:41:25.548Z,101039.46
2019-04-27T07:44:55.472Z,101046.75
2019-04-27T07:48:25.391Z,101044.94
2019-04-27T07:51:55.312Z,101044.46
2019-04-27T07:55:25.256Z,101048.61
2019-04-27T07:58:55.197Z,101051.5
2019-04-27T08:02:25.118Z,101049.71
2019-04-27T08:05:55.024Z,101063.65
2019-04-27T08:09:24.934Z,101056.71
2019-04-27T08:12:54.852Z,101066.26
2019-04-27T08:16:24.769Z,101064.4
2019-04-27T08:19:54.678Z,101066.88
2019-04-27T08:23:24.595Z,101067.37
2019-04-27T08:26:54.501Z,101062.85
2019-04-27T08:30:24.461Z,101067.28
2019-04-27T08:33:54.424Z,101073.64
2019-04-27T08:37:24.679Z,101070.92
2019-04-27T08:40:54.581Z,101073.35
2019-04-27T08:44:25.504Z,101073.35
2019-04-27T08:47:55.401Z,101067.59
2019-04-27T08:51:25.349Z,101078.42
2019-04-27T08:54:55.257Z,101088.14
2019-04-27T08:58:25.208Z,101085.46
2019-04-27T09:01:55.116Z,101081.4
2019-04-27T09:05:25.033Z,101081.51
2019-04-27T09:08:55.988Z,101068.48
2019-04-27T09:12:25.896Z,101080.82
2019-04-27T09:15:55.817Z,101082.59
2019-04-27T09:19:25.741Z,101067.59
2019-04-27T09:22:55.646Z,101076.4
2019-04-27T09:26:25.634Z,101077.31
2019-04-27T09:29:55.611Z,101076.23
2019-04-27T09:33:25.532Z,101068.37
2019-04-27T09:36:56.637Z,101069.46
2019-04-27T09:40:27.499Z,101067.06
2019-04-27T09:43:57.443Z,101063.38
2019-04-27T09:47:28.366Z,101059.92
2019-04-27T09:50:58.327Z,101065.75
2019-04-27T09:54:29.322Z,101068.42
2019-04-27T09:57:59.334Z,101076.21
2019-04-27T10:01:30.316Z,101058.9
2019-04-27T10:05:00.375Z,101053.28
2019-04-27T10:08:30.320Z,101068.85
2019-04-27T10:12:00.264Z,101063.45
2019-04-27T10:15:30.335Z,101078.29
2019-04-27T10:19:00.330Z,101075.98
2019-04-27T10:22:40.934Z,101081.72
2019-04-27T10:26:06.340Z,101081.42
2019-04-27T10:29:37.380Z,101083.39
2019-04-27T10:33:08.484Z,101068.31
2019-04-27T10:36:38.456Z,101075.15
2019-04-27T10:40:09.031Z,101080.43
2019-04-27T10:43:39.042Z,101080.01
2019-04-27T10:47:09.013Z,101080.59
2019-04-27T10:50:39.005Z,101072.57
2019-04-27T10:54:08.916Z,101067.17
2019-04-27T10:57:38.838Z,101071.19
2019-04-27T11:01:08.756Z,101062.18
2019-04-27T11:04:38.664Z,101068.01
2019-04-27T11:08:08.585Z,101065.53
2019-04-27T11:11:39.537Z,101070.07
2019-04-27T11:15:09.500Z,101070.75
2019-04-27T11:18:39.404Z,101076.52
2019-04-27T11:22:09.336Z,101084.95
2019-04-27T11:25:39.262Z,101081.98
2019-04-27T11:29:09.167Z,101080.43
2019-04-27T11:32:39.098Z,101080.9
2019-04-27T11:36:10.015Z,101084.54
2019-04-27T11:39:39.910Z,101087.85
2019-04-27T11:43:09.818Z,101089.5
2019-04-27T11:46:39.739Z,101088.04
2019-04-27T11:50:09.645Z,101093.6
2019-04-27T11:53:39.589Z,101090.79
2019-04-27T11:57:09.508Z,101095.09
2019-04-27T12:00:39.446Z,101095.51
2019-04-27T12:04:09.363Z,101087.85
2019-04-27T12:07:39.285Z,101095.7
2019-04-27T12:11:09.211Z,101097.52
2019-04-27T12:14:39.118Z,101096.5
2019-04-27T12:18:10.077Z,101089.26
2019-04-27T12:21:40.003Z,101096.85
2019-04-27T12:25:09.924Z,101100.87
2019-04-27T12:28:39.827Z,101108.32
2019-04-27T12:32:09.744Z,101096.25
2019-04-27T12:35:39.670Z,101089.65
2019-04-27T12:39:09.599Z,101085.1
2019-04-27T12:42:39.512Z,101077.28
2019-04-27T12:46:10.499Z,101076.5
2019-04-27T12:49:40.408Z,101075.53
2019-04-27T12:53:10.334Z,101070.98
2019-04-27T12:56:40.258Z,101072.54
2019-04-27T13:00:11.167Z,101072.41
2019-04-27T13:03:41.062Z,101070
2019-04-27T13:07:10.978Z,101065.88
2019-04-27T13:10:40.893Z,101063.45
2019-04-27T13:14:10.833Z,101063.96
2019-04-27T13:17:40.936Z,101063.66
2019-04-27T13:21:10.868Z,101064.93
2019-04-27T13:24:40.773Z,101059.1
2019-04-27T13:28:10.735Z,101054.9
2019-04-27T13:31:41.636Z,101062.03
2019-04-27T13:35:11.557Z,101051.32
2019-04-27T13:38:41.485Z,101048.42
2019-04-27T13:42:12.446Z,101052.04
2019-04-27T13:45:42.563Z,101045.44
2019-04-27T13:49:12.641Z,101039.02
2019-04-27T13:52:42.615Z,101038.81
2019-04-27T13:56:12.689Z,101042.69
2019-04-27T13:59:43.776Z,101038.14
2019-04-27T14:03:16.721Z,101033.87
2019-04-27T14:06:46.139Z,101035.13
2019-04-27T14:10:20.296Z,101038.64
2019-04-27T14:13:51.923Z,101044.42
2019-04-27T14:17:21.967Z,101038.32
2019-04-27T14:20:52.394Z,101035.51
2019-04-27T14:24:28.400Z,101027.55
2019-04-27T14:27:58.386Z,101025.17
2019-04-27T14:31:29.280Z,101025.23
2019-04-27T14:35:00.278Z,101026.17
2019-04-27T14:38:30.246Z,101015.43
2019-04-27T14:42:01.181Z,101011.71
2019-04-27T14:45:31.265Z,101018.06
2019-04-27T14:49:01.214Z,101025.56
2019-04-27T14:52:31.168Z,101023.18
2019-04-27T14:56:01.121Z,101035.07
2019-04-27T14:59:32.070Z,101033.57
2019-04-27T15:03:02.028Z,101025.12
2019-04-27T15:06:32.990Z,101026.64
2019-04-27T15:10:05.953Z,101027.14
2019-04-27T15:13:42.627Z,101026.28
2019-04-27T15:17:17.408Z,101022.31
2019-04-27T15:20:47.650Z,101019.71
2019-04-27T15:24:17.638Z,101026.81
2019-04-27T15:27:50.082Z,101037.34
2019-04-27T15:31:26.087Z,101038.48
2019-04-27T15:34:53.633Z,101031.88
2019-04-27T15:38:24.719Z,101042.91
2019-04-27T15:41:54.708Z,101046.2
2019-04-27T15:45:25.697Z,101041.25
2019-04-27T15:48:56.745Z,101044.76
2019-04-27T15:52:33.080Z,101046.75
2019-04-27T15:56:02.634Z,101056.63
2019-04-27T15:59:37.648Z,101048.12
2019-04-27T16:03:08.002Z,101044.1
2019-04-27T16:06:42.755Z,101036.14
2019-04-27T16:10:12.296Z,101035.32
2019-04-27T16:13:43.209Z,101030.92
2019-04-27T16:17:13.162Z,101029.38
2019-04-27T16:20:43.126Z,101028.51
2019-04-27T16:24:16.881Z,101023.07
2019-04-27T16:27:48.809Z,101015.25
2019-04-27T16:31:20.389Z,101007.33
2019-04-27T16:34:52.072Z,101010.65
2019-04-27T16:38:22.160Z,101009.23
2019-04-27T16:41:53.114Z,101018.67
2019-04-27T16:45:27.052Z,101017.67
2019-04-27T16:48:59.195Z,100999.56
2019-04-27T16:52:30.413Z,100998.46
2019-04-27T16:56:06.159Z,100999.62
2019-04-27T16:59:43.961Z,101010.43
2019-04-27T17:03:11.121Z,101008.34
2019-04-27T17:06:45.709Z,101008.62
2019-04-27T17:10:25.181Z,101018.25
2019-04-27T17:13:52.147Z,101007.79
2019-04-27T17:17:21.875Z,101013.51
2019-04-27T17:20:57.332Z,101023.55
2019-04-27T17:24:27.921Z,101025.65
2019-04-27T17:28:03.938Z,101030.35
2019-04-27T17:31:34.556Z,101034.11
2019-04-27T17:35:11.036Z,101025.57
2019-04-27T17:38:42.490Z,101026.05
2019-04-27T17:42:12.398Z,101023.99
2019-04-27T17:45:42.487Z,101030.46
2019-04-27T17:49:12.623Z,101039
2019-04-27T17:52:42.651Z,101039.81
2019-04-27T17:56:13.649Z,101038.59
2019-04-27T17:59:43.780Z,101043.07
2019-04-27T18:03:17.417Z,101049.71
2019-04-27T18:06:48.693Z,101061.28
2019-04-27T18:10:23.985Z,101057.57
2019-04-27T18:13:55.810Z,101052.87
2019-04-27T18:17:26.572Z,101052.82
2019-04-27T18:20:57.515Z,101052.17
2019-04-27T18:24:29.083Z,101048.62
2019-04-27T18:27:59.582Z,101055.98
2019-04-27T18:31:30.571Z,101053.03
2019-04-27T18:35:00.638Z,101066.23
2019-04-27T18:38:35.309Z,101072.25
2019-04-27T18:42:04.723Z,101074.46
2019-04-27T18:45:37.943Z,101079.92
2019-04-27T18:49:09.001Z,101076.65
2019-04-27T18:52:47.063Z,101085.32
2019-04-27T18:56:12.900Z,101088.21
2019-04-27T18:59:42.893Z,101097.92
2019-04-27T19:03:12.824Z,101101.31
2019-04-27T19:06:42.790Z,101105.6
2019-04-27T19:10:12.837Z,101100.89
2019-04-27T19:13:42.879Z,101102.18
2019-04-27T19:17:12.905Z,101095.87
2019-04-27T19:20:43.052Z,101096
2019-04-27T19:24:13.251Z,101093.06
2019-04-27T19:27:44.377Z,101091.19
2019-04-27T19:31:14.310Z,101084.35
2019-04-27T19:34:44.259Z,101082.84
2019-04-27T19:38:14.305Z,101081.44
2019-04-27T19:41:56.605Z,101084.72
2019-04-27T19:45:21.100Z,101089.79
2019-04-27T19:48:51.404Z,101092.95
2019-04-27T19:52:22.709Z,101110.86
2019-04-27T19:55:52.301Z,101120.13
2019-04-27T19:59:22.479Z,101107.47
2019-04-27T20:02:52.554Z,101130.35
2019-04-27T20:06:22.534Z,101148.87
2019-04-27T20:09:52.528Z,101143.45
2019-04-27T20:13:23.416Z,101154.47
2019-04-27T20:16:53.359Z,101148.1
2019-04-27T20:20:23.274Z,101140.07
2019-04-27T20:23:53.298Z,101139.48
2019-04-27T20:27:23.289Z,101146.56
2019-04-27T20:30:53.251Z,101147.98
2019-04-27T20:34:24.515Z,101148.66
2019-04-27T20:37:54.432Z,101135.69
2019-04-27T20:41:24.381Z,101138.77
2019-04-27T20:44:55.287Z,101143.39
2019-04-27T20:48:25.184Z,101135.9
2019-04-27T20:51:55.092Z,101132.17
2019-04-27T20:55:25.017Z,101145.42
2019-04-27T20:58:55.002Z,101142.9
2019-04-27T21:02:25.923Z,101144.98
2019-04-27T21:05:55.843Z,101151.25
2019-04-27T21:09:25.750Z,101154.28
2019-04-27T21:12:55.665Z,101144.45
2019-04-27T21:16:25.585Z,101139.06
2019-04-27T21:19:55.479Z,101140.19
2019-04-27T21:23:25.400Z,101136.06
2019-04-27T21:26:55.342Z,101137.25
2019-04-27T21:30:25.285Z,101140.5
2019-04-27T21:33:55.226Z,101138.25
2019-04-27T21:37:26.132Z,101127.18
2019-04-27T21:40:56.053Z,101127.79
2019-04-27T21:44:25.963Z,101121.05
2019-04-27T21:47:55.878Z,101119.6
2019-04-27T21:51:25.814Z,101120.37
2019-04-27T21:54:55.727Z,101118.32
2019-04-27T21:58:28.696Z,101120.44
2019-04-27T22:01:59.507Z,101121.9
2019-04-27T22:05:31.562Z,101122.62
2019-04-27T22:09:02.299Z,101128.96
2019-04-27T22:12:33.215Z,101139.2
2019-04-27T22:16:03.171Z,101139.85
2019-04-27T22:19:33.079Z,101133.63
2019-04-27T22:23:03.992Z,101132.53
2019-04-27T22:26:33.918Z,101134.65
2019-04-27T22:30:03.872Z,101134.48
2019-04-27T22:33:33.794Z,101132.89
2019-04-27T22:37:04.743Z,101135.17
2019-04-27T22:40:34.691Z,101139.78
2019-04-27T22:44:04.604Z,101143.53
2019-04-27T22:47:34.526Z,101145.81
2019-04-27T22:51:04.448Z,101140.33
2019-04-27T22:54:34.363Z,101141.92
2019-04-27T22:58:04.350Z,101142.77
2019-04-27T23:01:34.272Z,101146.78
2019-04-27T23:05:04.217Z,101143.95
2019-04-27T23:08:34.130Z,101145.17
2019-04-27T23:12:04.090Z,101149.63
2019-04-27T23:15:34.021Z,101153.37
2019-04-27T23:19:03.951Z,101151.64
2019-04-27T23:22:33.872Z,101152.29
2019-04-27T23:26:03.798Z,101159.75
2019-04-27T23:29:34.695Z,101156.87
2019-04-27T23:33:04.660Z,101160.48
2019-04-27T23:36:34.575Z,101160.18
2019-04-27T23:40:04.479Z,101151.42
2019-04-27T23:43:34.389Z,101147.4
2019-04-27T23:47:04.313Z,101152.11
2019-04-27T23:50:34.230Z,101152.18
2019-04-27T23:54:04.159Z,101149.56
2019-04-27T23:57:34.103Z,101141.77
